»·PEaware :: N597SP KCMA-KSNA

N597SP :: KCMA-KSNA

FLIGHT INFORMATION

Flight Status: Arrived
Operator: Privately registered:
United States
More flights under this callsign
Pilot: Nathan C. (29383)
Aircraft: CESSNA 172 SKYHAWK
(C172)
More flights by this aircraft type
Origin: KCMA Camarillo
United States
Destination: KSNA John Wayne-Orange Co
United States
More flights between these airports :: More routes between these airports
Route: +KCMA SUANA LAX VPLVT MINOE KSNA
File this flight plan on PilotEdge
Remarks: Cat 10 rating
Altitude:
(Current/Filed)
5,500ft
Speed:
(Current/Filed)
90kts
Departed: 20-May-20 08:49 PM
Arrived: 20-May-20 09:44 PM
Distance/Time
Traveled:
69nm/0:55
Distance/Time
To Go:
Arrived

Flight Plot

Page will automatically refresh every two minutes.


Map Options




Map Legend


Flown Route
Filed Route
Departure Airport
Arrival Airport
Navaid (VOR, NDB)
Fix

Horizontal Profiles

Position Reports

Time Latitude Longitude Heading Altitude Ground
Speed
20-May-20 19:54 34.210343 -119.076837 87 79ft 0kts
20-May-20 19:55 34.210343 -119.076837 87 79ft 0kts
20-May-20 19:56 34.210343 -119.076837 87 79ft 0kts
20-May-20 19:57 34.210343 -119.076837 87 79ft 0kts
20-May-20 19:58 34.210343 -119.076837 87 79ft 0kts
20-May-20 19:59 34.210343 -119.076837 87 79ft 0kts
20-May-20 20:00 34.210343 -119.076837 87 79ft 0kts
20-May-20 20:01 34.210343 -119.076837 87 79ft 0kts
20-May-20 20:02 34.210343 -119.076837 87 79ft 0kts
20-May-20 20:03 34.210343 -119.076837 87 79ft 0kts
20-May-20 20:04 34.210343 -119.076837 87 79ft 0kts
20-May-20 20:05 34.210343 -119.076837 87 79ft 0kts
20-May-20 20:06 34.210343 -119.076837 87 79ft 0kts
20-May-20 20:07 34.210343 -119.076837 87 79ft 0kts
20-May-20 20:08 34.210343 -119.076837 87 79ft 0kts
20-May-20 20:10 34.210343 -119.076837 87 79ft 0kts
20-May-20 20:11 34.210343 -119.076837 87 79ft 0kts
20-May-20 20:12 34.210343 -119.076837 87 79ft 0kts
20-May-20 20:13 34.210343 -119.076837 87 79ft 0kts
20-May-20 20:14 34.210343 -119.076837 87 79ft 0kts
20-May-20 20:15 34.210343 -119.076837 87 79ft 0kts
20-May-20 20:16 34.210343 -119.076837 87 79ft 0kts
20-May-20 20:17 34.210343 -119.076837 87 79ft 0kts
20-May-20 20:18 34.210343 -119.076837 87 79ft 0kts
20-May-20 20:19 34.210343 -119.076837 87 79ft 0kts
20-May-20 20:20 34.210343 -119.076837 87 79ft 0kts
20-May-20 20:21 34.210343 -119.076837 87 79ft 0kts
20-May-20 20:22 34.210343 -119.076837 87 79ft 0kts
20-May-20 20:23 34.210343 -119.076837 87 79ft 0kts
20-May-20 20:24 34.210343 -119.076837 87 79ft 0kts
20-May-20 20:24 34.210343 -119.076837 87 79ft 0kts
20-May-20 20:26 34.210343 -119.076837 87 79ft 0kts
20-May-20 20:27 34.210343 -119.076837 87 79ft 0kts
20-May-20 20:27 34.210343 -119.076837 87 79ft 0kts
20-May-20 20:28 34.210343 -119.076837 87 79ft 0kts
20-May-20 20:30 34.210343 -119.076837 87 79ft 0kts
20-May-20 20:30 34.210343 -119.076837 87 79ft 0kts
20-May-20 20:31 34.210343 -119.076837 87 79ft 0kts
20-May-20 20:32 34.210343 -119.076837 87 79ft 0kts
20-May-20 20:33 34.210343 -119.076837 87 79ft 0kts
20-May-20 20:34 34.210343 -119.076837 87 79ft 0kts
20-May-20 20:35 34.210343 -119.076837 87 79ft 0kts
20-May-20 20:36 34.210343 -119.076837 87 79ft 0kts
20-May-20 20:37 34.210343 -119.076837 87 79ft 0kts
20-May-20 20:38 34.210343 -119.076837 87 79ft 0kts
20-May-20 20:39 34.210343 -119.076837 87 79ft 0kts
20-May-20 20:40 34.210349 -119.076695 86 79ft 4kts
20-May-20 20:41 34.210875 -119.077728 269 79ft 6kts
20-May-20 20:42 34.210902 -119.080154 270 77ft 6kts
20-May-20 20:43 34.210920 -119.082832 271 76ft 8kts
20-May-20 20:44 34.211431 -119.084645 4 73ft 1kts
20-May-20 20:45 34.212884 -119.084610 0 76ft 0kts
20-May-20 20:46 34.212916 -119.084609 0 76ft 1kts
20-May-20 20:47 34.213660 -119.084984 271 76ft 0kts
20-May-20 20:48 34.213158 -119.101503 264 606ft 73kts
20-May-20 20:49 34.223713 -119.117370 14 1610ft 84kts
20-May-20 20:50 34.231688 -119.093070 93 2487ft 92kts
20-May-20 20:51 34.235557 -119.063018 84 3353ft 93kts
20-May-20 20:52 34.231886 -119.032253 86 4109ft 99kts
20-May-20 20:53 34.235526 -119.001072 83 4861ft 98kts
20-May-20 20:54 34.228185 -118.967176 108 5408ft 103kts
20-May-20 20:55 34.219108 -118.935733 94 5570ft 99kts
20-May-20 20:56 34.213158 -118.901664 110 5612ft 104kts
20-May-20 20:57 34.200892 -118.869639 116 5667ft 106kts
20-May-20 20:58 34.188500 -118.837582 104 5743ft 105kts
20-May-20 20:59 34.188176 -118.803961 87 5721ft 110kts
20-May-20 21:00 34.184920 -118.764346 94 5597ft 111kts
20-May-20 21:01 34.184225 -118.730911 91 5505ft 111kts
20-May-20 21:02 34.183918 -118.693463 86 5402ft 111kts
20-May-20 21:03 34.186494 -118.652184 83 5298ft 111kts
20-May-20 21:04 34.188613 -118.615247 83 5255ft 108kts
20-May-20 21:05 34.189176 -118.581034 96 5399ft 91kts
20-May-20 21:06 34.180925 -118.551785 134 5428ft 97kts
20-May-20 21:07 34.156308 -118.537990 149 5492ft 96kts
20-May-20 21:08 34.134044 -118.518975 139 5536ft 99kts
20-May-20 21:09 34.109414 -118.509937 195 5563ft 94kts
20-May-20 21:10 34.083843 -118.502887 157 5534ft 98kts
20-May-20 21:11 34.057980 -118.491257 165 5437ft 99kts
20-May-20 21:12 34.032110 -118.479003 164 5370ft 100kts
20-May-20 21:13 34.005785 -118.466884 164 5369ft 101kts
20-May-20 21:14 33.979427 -118.453634 167 5403ft 102kts
20-May-20 21:15 33.952500 -118.441702 157 5442ft 105kts
20-May-20 21:16 33.927025 -118.423762 149 5487ft 106kts
20-May-20 21:17 33.903558 -118.401564 153 5526ft 107kts
20-May-20 21:18 33.877355 -118.385479 147 5573ft 107kts
20-May-20 21:19 33.851643 -118.367669 146 5621ft 107kts
20-May-20 21:20 33.834951 -118.339028 108 5622ft 107kts
20-May-20 21:21 33.819360 -118.309156 133 5593ft 107kts
20-May-20 21:22 33.801403 -118.280861 125 5572ft 106kts
20-May-20 21:23 33.778613 -118.258067 146 5546ft 106kts
20-May-20 21:24 33.752924 -118.240622 158 5520ft 106kts
20-May-20 21:25 33.725058 -118.230134 181 5495ft 104kts
20-May-20 21:26 33.706390 -118.213032 80 5432ft 103kts
20-May-20 21:27 33.709430 -118.179070 76 5412ft 105kts
20-May-20 21:28 33.713924 -118.143705 82 5418ft 105kts
20-May-20 21:29 33.714927 -118.108308 86 5419ft 106kts
20-May-20 21:30 33.714480 -118.073131 80 5420ft 105kts
20-May-20 21:31 33.716182 -118.037562 78 5417ft 105kts
20-May-20 21:32 33.719870 -118.002597 79 5419ft 105kts
20-May-20 21:33 33.723266 -117.967482 79 5422ft 105kts
20-May-20 21:34 33.721161 -117.932379 120 5358ft 108kts
20-May-20 21:35 33.699428 -117.907027 150 5060ft 110kts
20-May-20 21:36 33.671976 -117.900336 169 4906ft 102kts
20-May-20 21:37 33.651041 -117.912529 292 4522ft 93kts
20-May-20 21:38 33.676939 -117.898884 32 3313ft 112kts
20-May-20 21:39 33.705210 -117.874657 33 1572ft 120kts
20-May-20 21:40 33.713186 -117.856560 188 735ft 87kts
20-May-20 21:41 33.693194 -117.857890 203 371ft 61kts
20-May-20 21:42 33.678263 -117.867044 208 63ft 48kts
20-May-20 21:43 33.674227 -117.870788 304 60ft 0kts
20-May-20 21:44 33.674255 -117.870864 289 60ft 3kts
20-May-20 21:45 33.674691 -117.871759 310 60ft 0kts
20-May-20 21:46 33.674691 -117.871759 310 60ft 0kts
20-May-20 21:47 33.674691 -117.871759 310 60ft 0kts
20-May-20 21:48 33.674691 -117.871759 310 60ft 0kts
20-May-20 21:49 33.674691 -117.871759 310 60ft 0kts
20-May-20 21:50 33.674691 -117.871759 310 60ft 0kts
20-May-20 21:51 33.674691 -117.871759 310 60ft 0kts

Navigation Log

Ident Type
Flight plan parsing failed, navigation log unavailable